<?xml version="1.0" encoding="utf-8"?>
<gpx xmlns:xsi="http://www.w3.org/2001/XMLSchema-instance" xmlns:xsd="http://www.w3.org/2001/XMLSchema" version="1.1" creator="Shapelink.com" xmlns="http://www.topografix.com/GPX/1/1" xmlns:gpxtpx="http://www.garmin.com/xmlschemas/TrackPointExtension/v1">
  <metadata>
    <name>Övrigt 1.75 km, 2020-07-12</name>
    <desc></desc>
    <author><name>Marian Moron</name></author> 
    <time>2020-07-12T20:38:20Z</time>
  </metadata>
  <trk>
    <name>Övrigt 1.75 km, 2020-07-12</name>
    <trkseg>
      <trkpt lat="51.229822520399" lon="4.458157176833">
        <ele>12.2</ele>
        <time>2020-07-12T20:38:20Z</time>
      </trkpt>
      <trkpt lat="51.229945482872" lon="4.458698815211">
        <ele>11.6</ele>
        <time>2020-07-12T20:39:06Z</time>
      </trkpt>
      <trkpt lat="51.230054447572" lon="4.458777185976">
        <ele>9.6</ele>
        <time>2020-07-12T20:39:22Z</time>
      </trkpt>
      <trkpt lat="51.230428699407" lon="4.458806354988">
        <ele>12.2</ele>
        <time>2020-07-12T20:40:02Z</time>
      </trkpt>
      <trkpt lat="51.230498352996" lon="4.458918085715">
        <ele>11.6</ele>
        <time>2020-07-12T20:40:15Z</time>
      </trkpt>
      <trkpt lat="51.230467675242" lon="4.459609508646">
        <ele>11.6</ele>
        <time>2020-07-12T20:41:14Z</time>
      </trkpt>
      <trkpt lat="51.230558786495" lon="4.459849566262">
        <ele>7.8</ele>
        <time>2020-07-12T20:41:38Z</time>
      </trkpt>
      <trkpt lat="51.230547303292" lon="4.460212753989">
        <ele>5</ele>
        <time>2020-07-12T20:42:06Z</time>
      </trkpt>
      <trkpt lat="51.230584938023" lon="4.460492457992">
        <ele>2.4</ele>
        <time>2020-07-12T20:42:27Z</time>
      </trkpt>
      <trkpt lat="51.230517379909" lon="4.460742992983">
        <ele>1.2</ele>
        <time>2020-07-12T20:43:10Z</time>
      </trkpt>
      <trkpt lat="51.230238095001" lon="4.460827817811">
        <ele>0</ele>
        <time>2020-07-12T20:44:11Z</time>
      </trkpt>
      <trkpt lat="51.229795865957" lon="4.460978105278">
        <ele>1.2</ele>
        <time>2020-07-12T20:44:51Z</time>
      </trkpt>
      <trkpt lat="51.229577266005" lon="4.461258228376">
        <ele>0</ele>
        <time>2020-07-12T20:45:23Z</time>
      </trkpt>
      <trkpt lat="51.229253389389" lon="4.461401894142">
        <ele>0</ele>
        <time>2020-07-12T20:46:05Z</time>
      </trkpt>
      <trkpt lat="51.228886345988" lon="4.461276417099">
        <ele>3.4</ele>
        <time>2020-07-12T20:47:12Z</time>
      </trkpt>
      <trkpt lat="51.22849642" lon="4.461189245339">
        <ele>8</ele>
        <time>2020-07-12T20:48:56Z</time>
      </trkpt>
      <trkpt lat="51.228489379204" lon="4.461133254247">
        <ele>8</ele>
        <time>2020-07-12T20:48:59Z</time>
      </trkpt>
      <trkpt lat="51.228385443644" lon="4.460793200564">
        <ele>5</ele>
        <time>2020-07-12T20:49:30Z</time>
      </trkpt>
      <trkpt lat="51.228366752007" lon="4.460767803407">
        <ele>5</ele>
        <time>2020-07-12T20:49:32Z</time>
      </trkpt>
      <trkpt lat="51.228127532581" lon="4.460512490733">
        <ele>0</ele>
        <time>2020-07-12T20:50:12Z</time>
      </trkpt>
      <trkpt lat="51.227805416164" lon="4.460710890306">
        <ele>4.8</ele>
        <time>2020-07-12T20:51:13Z</time>
      </trkpt>
      <trkpt lat="51.227781192473" lon="4.460731677418">
        <ele>4.4</ele>
        <time>2020-07-12T20:51:16Z</time>
      </trkpt>
      <trkpt lat="51.227454214554" lon="4.461012806344">
        <ele>2.4</ele>
        <time>2020-07-12T20:52:15Z</time>
      </trkpt>
      <trkpt lat="51.227448766319" lon="4.460978272916">
        <ele>4.4</ele>
        <time>2020-07-12T20:52:18Z</time>
      </trkpt>
      <trkpt lat="51.22732965952" lon="4.460405537689">
        <ele>10.8</ele>
        <time>2020-07-12T20:52:59Z</time>
      </trkpt>
      <trkpt lat="51.227176019293" lon="4.459731800567">
        <ele>3.6</ele>
        <time>2020-07-12T20:53:40Z</time>
      </trkpt>
      <trkpt lat="51.227105946609" lon="4.459489060743">
        <ele>5.2</ele>
        <time>2020-07-12T20:53:59Z</time>
      </trkpt>
      <trkpt lat="51.227255228248" lon="4.459003245819">
        <ele>13</ele>
        <time>2020-07-12T20:54:54Z</time>
      </trkpt>
      <trkpt lat="51.227266962908" lon="4.458993858091">
        <ele>13.6</ele>
        <time>2020-07-12T20:54:55Z</time>
      </trkpt>
      <trkpt lat="51.22762134964" lon="4.458767127696">
        <ele>16.4</ele>
        <time>2020-07-12T20:55:33Z</time>
      </trkpt>
      <trkpt lat="51.228045892875" lon="4.458522124759">
        <ele>10.6</ele>
        <time>2020-07-12T20:56:14Z</time>
      </trkpt>
      <trkpt lat="51.228484852978" lon="4.458275277804">
        <ele>8</ele>
        <time>2020-07-12T20:56:58Z</time>
      </trkpt>
      <trkpt lat="51.22854503502" lon="4.458138652834">
        <ele>9.4</ele>
        <time>2020-07-12T20:57:08Z</time>
      </trkpt>
      <trkpt lat="51.228539419147" lon="4.457409595172">
        <ele>19.2</ele>
        <time>2020-07-12T20:57:47Z</time>
      </trkpt>
      <trkpt lat="51.228502203511" lon="4.457257798963">
        <ele>12.8</ele>
        <time>2020-07-12T20:58:07Z</time>
      </trkpt>
      <trkpt lat="51.228683839284" lon="4.456927216827">
        <ele>2.8</ele>
        <time>2020-07-12T20:59:08Z</time>
      </trkpt>
      <trkpt lat="51.229149621467" lon="4.456845828578">
        <ele>7.2</ele>
        <time>2020-07-12T20:59:43Z</time>
      </trkpt>
      <trkpt lat="51.229507863873" lon="4.456808361485">
        <ele>14.4</ele>
        <time>2020-07-12T21:00:16Z</time>
      </trkpt>
      <trkpt lat="51.229945147596" lon="4.456587749877">
        <ele>11</ele>
        <time>2020-07-12T21:01:00Z</time>
      </trkpt>
      <trkpt lat="51.230397267282" lon="4.456450538174">
        <ele>15.4</ele>
        <time>2020-07-12T21:01:56Z</time>
      </trkpt>
      <trkpt lat="51.23059021862" lon="4.456392535426">
        <ele>10.2</ele>
        <time>2020-07-12T21:02:18Z</time>
      </trkpt>
      <trkpt lat="51.230719216061" lon="4.456462189015">
        <ele>7.6</ele>
        <time>2020-07-12T21:02:36Z</time>
      </trkpt>
      <trkpt lat="51.230760119733" lon="4.456468810716">
        <ele>7.4</ele>
        <time>2020-07-12T21:02:42Z</time>
      </trkpt>
      <trkpt lat="51.231020293909" lon="4.456248534384">
        <ele>7.6</ele>
        <time>2020-07-12T21:03:07Z</time>
      </trkpt>
      <trkpt lat="51.231170413738" lon="4.456269237677">
        <ele>10.2</ele>
        <time>2020-07-12T21:03:25Z</time>
      </trkpt>
      <trkpt lat="51.231182651312" lon="4.456378118558">
        <ele>12.8</ele>
        <time>2020-07-12T21:03:28Z</time>
      </trkpt>
      <trkpt lat="51.23118533352" lon="4.457112624455">
        <ele>6.6</ele>
        <time>2020-07-12T21:04:03Z</time>
      </trkpt>
      <trkpt lat="51.231168402082" lon="4.457598271741">
        <ele>0</ele>
        <time>2020-07-12T21:04:33Z</time>
      </trkpt>
      <trkpt lat="51.230734471119" lon="4.457695334143">
        <ele>0</ele>
        <time>2020-07-12T21:05:11Z</time>
      </trkpt>
      <trkpt lat="51.230541100686" lon="4.457760377687">
        <ele>0</ele>
        <time>2020-07-12T21:05:31Z</time>
      </trkpt>
      <trkpt lat="51.230113539967" lon="4.457752331063">
        <ele>0</ele>
        <time>2020-07-12T21:06:08Z</time>
      </trkpt>
      <trkpt lat="51.229967359631" lon="4.4578380779">
        <ele>0</ele>
        <time>2020-07-12T21:06:21Z</time>
      </trkpt>
      <trkpt lat="51.229559999291" lon="4.458031280695">
        <ele>0</ele>
        <time>2020-07-12T21:07:30Z</time>
      </trkpt>
      <trkpt lat="51.229421111208" lon="4.458041338975">
        <ele>5.8</ele>
        <time>2020-07-12T21:08:29Z</time>
      </trkpt>
    </trkseg>
  </trk>
</gpx>